createdAt,value
2018-06-18T00:00:44.661Z,62.83
2018-06-18T00:03:12.723Z,62.93
2018-06-18T00:05:40.764Z,62.76
2018-06-18T00:08:08.867Z,63.26
2018-06-18T00:10:36.930Z,63.10
2018-06-18T00:13:04.975Z,63.61
2018-06-18T00:15:33.023Z,63.59
2018-06-18T00:18:01.101Z,63.86
2018-06-18T00:20:29.150Z,63.92
2018-06-18T00:22:57.220Z,64.43
2018-06-18T00:25:25.296Z,64.28
2018-06-18T00:27:53.348Z,64.24
2018-06-18T00:30:21.398Z,64.67
2018-06-18T00:32:49.435Z,64.44
2018-06-18T00:35:17.496Z,64.72
2018-06-18T00:37:45.528Z,64.79
2018-06-18T00:40:13.672Z,64.84
2018-06-18T00:42:41.718Z,64.76
2018-06-18T00:45:09.785Z,65.07
2018-06-18T00:47:37.828Z,64.86
2018-06-18T00:50:05.929Z,64.84
2018-06-18T00:52:33.975Z,65.24
2018-06-18T00:55:02.052Z,65.27
2018-06-18T00:57:30.101Z,65.26
2018-06-18T00:59:58.160Z,65.55
2018-06-18T01:02:26.204Z,65.65
2018-06-18T01:04:54.254Z,65.43
2018-06-18T01:07:22.316Z,65.70
2018-06-18T01:09:50.380Z,65.74
2018-06-18T01:12:18.453Z,65.35
2018-06-18T01:14:46.541Z,65.27
2018-06-18T01:17:14.590Z,65.65
2018-06-18T01:19:49.469Z,65.58
2018-06-18T01:22:17.517Z,65.70
2018-06-18T01:25:00.181Z,65.62
2018-06-18T01:27:28.237Z,65.32
2018-06-18T01:29:56.672Z,65.55
2018-06-18T01:32:25.142Z,65.50
2018-06-18T01:34:53.192Z,65.81
2018-06-18T01:37:21.231Z,65.71
2018-06-18T01:39:49.316Z,65.81
2018-06-18T01:44:51.751Z,65.58
2018-06-18T01:47:19.793Z,65.76
2018-06-18T01:49:47.860Z,65.96
2018-06-18T01:52:15.912Z,65.90
2018-06-18T01:54:43.956Z,65.86
2018-06-18T01:57:12.018Z,66.15
2018-06-18T01:59:40.101Z,66.29
2018-06-18T02:02:08.136Z,65.97
2018-06-18T02:04:36.179Z,65.72
2018-06-18T02:07:04.320Z,65.89
2018-06-18T02:09:32.360Z,65.80
2018-06-18T02:12:00.392Z,65.83
2018-06-18T02:14:28.431Z,66.04
2018-06-18T02:16:56.484Z,65.89
2018-06-18T02:19:24.525Z,65.57
2018-06-18T02:21:52.595Z,65.83
2018-06-18T02:24:20.640Z,65.86
2018-06-18T02:26:52.880Z,65.77
2018-06-18T02:29:26.213Z,65.66
2018-06-18T02:31:59.557Z,65.73
2018-06-18T02:34:32.988Z,65.84
2018-06-18T02:37:06.484Z,65.65
2018-06-18T02:39:38.752Z,65.34
2018-06-18T02:42:06.793Z,65.37
2018-06-18T02:44:34.844Z,65.11
2018-06-18T02:47:02.892Z,65.44
2018-06-18T02:49:30.928Z,65.42
2018-06-18T02:51:59.027Z,65.37
2018-06-18T02:54:27.063Z,65.23
2018-06-18T02:56:57.949Z,65.61
2018-06-18T02:59:25.993Z,65.50
2018-06-18T03:01:54.040Z,65.41
2018-06-18T03:04:22.085Z,65.55
2018-06-18T03:06:50.144Z,65.31
2018-06-18T03:09:18.192Z,65.40
2018-06-18T03:11:46.269Z,65.76
2018-06-18T03:14:14.316Z,65.53
2018-06-18T03:16:42.359Z,65.62
2018-06-18T03:19:15.875Z,65.62
2018-06-18T03:21:49.279Z,65.67
2018-06-18T03:24:22.762Z,65.45
2018-06-18T03:26:56.289Z,66.00
2018-06-18T03:29:26.802Z,65.69
2018-06-18T03:31:56.611Z,65.63
2018-06-18T03:34:24.651Z,65.58
2018-06-18T03:36:52.958Z,65.64
2018-06-18T03:39:21.000Z,65.77
2018-06-18T03:41:50.533Z,65.90
2018-06-18T03:44:26.679Z,65.94
2018-06-18T03:46:55.360Z,65.78
2018-06-18T03:49:23.439Z,65.79
2018-06-18T03:51:51.484Z,65.57
2018-06-18T03:54:19.535Z,65.82
2018-06-18T03:56:47.590Z,65.37
2018-06-18T03:59:15.644Z,65.72
2018-06-18T04:01:56.495Z,65.97
2018-06-18T04:04:29.931Z,65.55
2018-06-18T04:07:03.328Z,65.57
2018-06-18T04:09:36.777Z,65.51
2018-06-18T04:12:06.808Z,65.39
2018-06-18T04:14:35.227Z,65.47
2018-06-18T04:17:03.277Z,65.63
2018-06-18T04:19:31.327Z,65.56
2018-06-18T04:21:59.379Z,65.50
2018-06-18T04:24:27.404Z,65.70
2018-06-18T04:26:55.683Z,65.59
2018-06-18T04:29:23.756Z,65.33
2018-06-18T04:31:53.183Z,65.64
2018-06-18T04:34:28.049Z,65.61
2018-06-18T04:36:56.971Z,65.31
2018-06-18T04:39:25.063Z,65.24
2018-06-18T04:41:58.415Z,65.29
2018-06-18T04:44:31.897Z,65.31
2018-06-18T04:47:05.461Z,65.60
2018-06-18T04:49:38.875Z,65.73
2018-06-18T04:52:06.915Z,65.44
2018-06-18T04:54:34.955Z,65.42
2018-06-18T04:57:03.112Z,64.92
2018-06-18T04:59:32.364Z,65.42
2018-06-18T05:02:02.130Z,65.04
2018-06-18T05:04:30.232Z,64.94
2018-06-18T05:06:58.548Z,64.74
2018-06-18T05:09:33.530Z,64.87
2018-06-18T05:12:01.561Z,64.61
2018-06-18T05:14:29.618Z,64.63
2018-06-18T05:16:57.649Z,64.36
2018-06-18T05:19:25.737Z,64.27
2018-06-18T05:21:53.767Z,63.69
2018-06-18T05:24:21.820Z,63.76
2018-06-18T05:26:51.979Z,63.43
2018-06-18T05:29:21.700Z,64.05
2018-06-18T05:31:49.737Z,63.86
2018-06-18T05:34:20.245Z,63.69
2018-06-18T05:36:48.880Z,63.70
2018-06-18T05:39:16.933Z,63.38
2018-06-18T05:41:45.000Z,63.06
2018-06-18T05:44:13.060Z,63.04
2018-06-18T05:46:41.112Z,63.03
2018-06-18T05:49:09.196Z,62.90
2018-06-18T05:51:37.264Z,62.51
2018-06-18T05:54:05.345Z,62.25
2018-06-18T05:56:33.453Z,62.23
2018-06-18T05:59:08.384Z,62.32
2018-06-18T06:01:36.442Z,61.34
2018-06-18T06:04:04.507Z,61.02
2018-06-18T06:06:32.565Z,60.47
2018-06-18T06:09:00.697Z,60.50
2018-06-18T06:11:28.748Z,60.61
2018-06-18T06:13:56.824Z,60.40
2018-06-18T06:16:24.889Z,60.09
2018-06-18T06:18:52.956Z,60.56
2018-06-18T06:21:21.018Z,60.52
2018-06-18T06:23:49.043Z,60.11
2018-06-18T06:26:17.107Z,58.85
2018-06-18T06:28:45.181Z,59.35
2018-06-18T06:31:13.228Z,59.75
2018-06-18T06:33:41.273Z,58.77
2018-06-18T06:36:10.262Z,58.54
2018-06-18T06:38:38.589Z,57.95
2018-06-18T06:41:07.431Z,58.33
2018-06-18T06:43:35.489Z,57.24
2018-06-18T06:46:03.573Z,57.23
2018-06-18T06:48:31.647Z,57.12
2018-06-18T06:50:59.717Z,56.73
2018-06-18T06:53:27.804Z,56.35
2018-06-18T06:55:55.920Z,56.05
2018-06-18T06:58:23.906Z,56.15
2018-06-18T07:00:51.964Z,55.56
2018-06-18T07:03:20.004Z,55.40
2018-06-18T07:05:48.060Z,56.00
2018-06-18T07:08:16.100Z,56.15
2018-06-18T07:10:44.156Z,55.96
2018-06-18T07:13:12.206Z,55.89
2018-06-18T07:15:40.252Z,55.33
2018-06-18T07:18:08.606Z,55.79
2018-06-18T07:20:36.651Z,55.69
2018-06-18T07:23:04.712Z,54.24
2018-06-18T07:25:32.796Z,54.35
2018-06-18T07:28:00.859Z,54.18
2018-06-18T07:30:29.035Z,53.83
2018-06-18T07:32:56.960Z,53.61
2018-06-18T07:35:25.020Z,53.29
2018-06-18T07:37:53.085Z,52.96
2018-06-18T07:40:21.141Z,53.14
2018-06-18T07:42:49.193Z,52.73
2018-06-18T07:45:17.265Z,51.53
2018-06-18T07:47:45.308Z,51.64
2018-06-18T07:50:13.387Z,51.08
2018-06-18T07:52:41.428Z,51.34
2018-06-18T07:55:09.505Z,50.60
2018-06-18T07:57:37.568Z,50.88
2018-06-18T08:00:05.791Z,50.08
2018-06-18T08:02:33.857Z,49.60
2018-06-18T08:05:01.917Z,48.99
2018-06-18T08:07:29.980Z,49.80
2018-06-18T08:09:58.048Z,49.65
2018-06-18T08:12:26.107Z,49.74
2018-06-18T08:14:54.192Z,49.12
2018-06-18T08:17:22.261Z,49.16
2018-06-18T08:19:50.331Z,48.42
2018-06-18T08:22:18.389Z,48.37
2018-06-18T08:24:46.453Z,48.41
2018-06-18T08:27:14.533Z,48.51
2018-06-18T08:29:42.685Z,48.37
2018-06-18T08:32:10.773Z,47.84
2018-06-18T08:34:38.888Z,48.43
2018-06-18T08:37:06.996Z,47.44
2018-06-18T08:39:35.082Z,47.06
2018-06-18T08:42:03.153Z,46.88
2018-06-18T08:44:31.211Z,47.07
2018-06-18T08:46:59.295Z,46.33
2018-06-18T08:49:27.357Z,47.29
2018-06-18T08:52:00.755Z,46.85
2018-06-18T08:55:35.121Z,47.33
2018-06-18T08:58:08.489Z,46.78
2018-06-18T09:00:41.882Z,46.98
2018-06-18T09:03:16.169Z,47.61
2018-06-18T09:05:53.600Z,47.55
2018-06-18T09:08:23.300Z,47.77
2018-06-18T09:10:51.654Z,48.08
2018-06-18T09:13:19.745Z,47.41
2018-06-18T09:15:47.845Z,47.63
2018-06-18T09:18:15.916Z,47.39
2018-06-18T09:20:43.972Z,47.42
2018-06-18T09:23:12.056Z,47.56
2018-06-18T09:25:47.365Z,48.26
2018-06-18T09:28:16.046Z,47.92
2018-06-18T09:30:44.109Z,48.52
2018-06-18T09:33:12.181Z,48.38
2018-06-18T09:35:40.284Z,48.97
2018-06-18T09:38:08.327Z,48.65
2018-06-18T09:40:36.412Z,49.73
2018-06-18T09:43:04.502Z,49.16
2018-06-18T09:45:32.584Z,49.82
2018-06-18T09:48:00.714Z,49.49
2018-06-18T09:51:32.948Z,49.49
2018-06-18T09:54:06.390Z,49.89
2018-06-18T09:56:39.716Z,49.64
2018-06-18T09:59:13.092Z,49.96
2018-06-18T10:01:41.164Z,49.26
2018-06-18T10:04:09.241Z,49.91
2018-06-18T10:06:38.379Z,49.90
2018-06-18T10:09:08.814Z,50.08
2018-06-18T10:11:37.197Z,50.22
2018-06-18T10:14:07.834Z,49.67
2018-06-18T10:16:35.908Z,50.17
2018-06-18T10:19:03.984Z,49.83
2018-06-18T10:21:32.059Z,49.54
2018-06-18T10:24:00.154Z,50.11
2018-06-18T10:26:28.259Z,49.69
2018-06-18T10:28:56.333Z,49.71
2018-06-18T10:31:24.393Z,49.72
2018-06-18T10:33:57.989Z,50.24
2018-06-18T10:36:31.499Z,50.07
2018-06-18T10:39:05.075Z,50.14
2018-06-18T10:41:38.747Z,50.14
2018-06-18T10:44:06.734Z,49.19
2018-06-18T10:46:34.826Z,49.45
2018-06-18T10:49:02.924Z,49.93
2018-06-18T10:51:31.008Z,49.78
2018-06-18T10:53:59.085Z,50.01
2018-06-18T10:56:27.173Z,50.42
2018-06-18T10:58:55.279Z,50.44
2018-06-18T11:01:33.208Z,50.19
2018-06-18T11:04:01.900Z,50.73
2018-06-18T11:06:33.030Z,50.68
2018-06-18T11:09:01.110Z,50.66
2018-06-18T11:11:29.572Z,51.20
2018-06-18T11:13:57.660Z,51.41
2018-06-18T11:16:26.012Z,51.45
2018-06-18T11:18:59.179Z,51.86
2018-06-18T11:21:32.661Z,51.94
2018-06-18T11:25:04.629Z,51.99
2018-06-18T11:27:32.719Z,51.77
2018-06-18T11:30:00.873Z,51.87
2018-06-18T11:32:28.915Z,52.16
2018-06-18T11:34:56.993Z,52.29
2018-06-18T11:37:25.025Z,52.03
2018-06-18T11:39:53.108Z,52.78
2018-06-18T11:42:21.202Z,52.36
2018-06-18T11:44:49.268Z,52.05
2018-06-18T11:47:17.324Z,51.83
2018-06-18T11:49:45.381Z,51.98
2018-06-18T11:52:13.465Z,50.97
2018-06-18T11:54:41.546Z,51.46
2018-06-18T11:57:09.601Z,51.71
2018-06-18T11:59:42.984Z,51.31
2018-06-18T12:02:16.538Z,51.22
2018-06-18T12:04:50.066Z,51.35
2018-06-18T12:07:23.677Z,51.44
2018-06-18T12:09:52.438Z,51.85
2018-06-18T12:12:20.411Z,51.79
2018-06-18T12:14:48.456Z,52.28
2018-06-18T12:17:16.492Z,52.65
2018-06-18T12:19:44.538Z,52.58
2018-06-18T12:22:12.641Z,52.85
2018-06-18T12:24:40.683Z,52.40
2018-06-18T12:27:09.765Z,52.91
2018-06-18T12:29:37.820Z,52.61
2018-06-18T12:32:05.917Z,52.65
2018-06-18T12:34:33.996Z,53.46
2018-06-18T12:37:02.109Z,52.60
2018-06-18T12:39:30.189Z,52.37
2018-06-18T12:42:03.278Z,52.09
2018-06-18T12:44:37.767Z,51.84
2018-06-18T12:47:11.512Z,52.45
2018-06-18T12:49:45.037Z,52.28
2018-06-18T12:52:18.726Z,52.03
2018-06-18T12:54:52.433Z,52.92
2018-06-18T12:57:20.588Z,52.21
2018-06-18T12:59:48.965Z,52.50
2018-06-18T13:02:20.893Z,52.87
2018-06-18T13:04:52.815Z,52.24
2018-06-18T13:07:20.997Z,52.93
2018-06-18T13:09:49.073Z,52.33
2018-06-18T13:12:17.148Z,53.73
2018-06-18T13:14:45.244Z,53.03
2018-06-18T13:17:13.341Z,53.33
2018-06-18T13:19:41.452Z,53.18
2018-06-18T13:22:09.533Z,53.79
2018-06-18T13:24:37.730Z,53.75
2018-06-18T13:27:05.808Z,54.28
2018-06-18T13:29:33.932Z,54.13
2018-06-18T13:32:01.955Z,54.31
2018-06-18T13:34:30.013Z,53.71
2018-06-18T13:37:03.498Z,53.75
2018-06-18T13:39:37.054Z,53.76
2018-06-18T13:42:10.501Z,52.62
2018-06-18T13:44:43.980Z,53.29
2018-06-18T13:47:17.545Z,53.22
2018-06-18T13:49:51.037Z,53.82
2018-06-18T13:52:19.083Z,53.13
2018-06-18T13:54:47.144Z,53.30
2018-06-18T13:57:15.263Z,53.20
2018-06-18T13:59:43.356Z,53.23
2018-06-18T14:02:11.416Z,52.90
2018-06-18T14:04:39.468Z,52.57
2018-06-18T14:07:07.539Z,52.54
2018-06-18T14:09:35.576Z,52.42
2018-06-18T14:12:03.648Z,52.17
2018-06-18T14:14:31.698Z,52.02
2018-06-18T14:16:59.788Z,51.90
2018-06-18T14:19:33.275Z,51.85
2018-06-18T14:22:01.348Z,51.66
2018-06-18T14:24:29.387Z,51.19
2018-06-18T14:26:57.460Z,51.13
2018-06-18T14:29:30.963Z,50.91
2018-06-18T14:31:59.804Z,50.23
2018-06-18T14:34:33.344Z,50.49
2018-06-18T14:37:06.908Z,50.95
2018-06-18T14:39:40.338Z,50.65
2018-06-18T14:42:09.194Z,51.80
2018-06-18T14:44:38.220Z,51.41
2018-06-18T14:47:06.656Z,51.13
2018-06-18T14:49:34.719Z,51.10
2018-06-18T14:52:02.764Z,50.88
2018-06-18T14:54:30.864Z,50.85
2018-06-18T14:57:01.121Z,50.66
2018-06-18T14:59:39.550Z,50.35
2018-06-18T15:02:07.578Z,50.36
2018-06-18T15:04:35.646Z,50.69
2018-06-18T15:07:04.112Z,50.46
2018-06-18T15:09:32.233Z,50.64
2018-06-18T15:12:00.249Z,50.36
2018-06-18T15:14:28.300Z,50.62
2018-06-18T15:16:56.408Z,50.21
2018-06-18T15:19:24.480Z,50.07
2018-06-18T15:21:56.217Z,50.08
2018-06-18T15:24:36.397Z,50.04
2018-06-18T15:27:04.488Z,50.14
2018-06-18T15:29:32.524Z,49.46
2018-06-18T15:32:00.636Z,49.99
2018-06-18T15:34:28.720Z,50.00
2018-06-18T15:36:56.830Z,49.96
2018-06-18T15:39:24.909Z,49.91
2018-06-18T15:41:52.951Z,50.02
2018-06-18T15:44:21.060Z,50.14
2018-06-18T15:46:49.223Z,50.19
2018-06-18T15:49:17.369Z,49.95
2018-06-18T15:51:45.517Z,50.20
2018-06-18T15:54:13.602Z,50.05
2018-06-18T15:56:41.696Z,49.90
2018-06-18T15:59:09.763Z,50.52
2018-06-18T16:01:37.924Z,50.47
2018-06-18T16:04:06.381Z,50.59
2018-06-18T16:06:34.428Z,50.55
2018-06-18T16:09:02.568Z,50.35
2018-06-18T16:11:30.585Z,50.40
2018-06-18T16:13:58.644Z,50.51
2018-06-18T16:16:26.697Z,50.56
2018-06-18T16:18:54.797Z,50.41
2018-06-18T16:21:22.917Z,50.94
2018-06-18T16:23:51.633Z,50.40
2018-06-18T16:26:19.792Z,50.55
2018-06-18T16:28:47.848Z,50.20
2018-06-18T16:31:15.896Z,50.40
2018-06-18T16:33:44.384Z,50.08
2018-06-18T16:36:12.441Z,50.60
2018-06-18T16:38:40.508Z,50.18
2018-06-18T16:41:08.565Z,50.91
2018-06-18T16:43:36.997Z,50.96
2018-06-18T16:46:05.357Z,50.39
2018-06-18T16:48:33.414Z,49.59
2018-06-18T16:51:01.548Z,50.67
2018-06-18T16:53:29.616Z,50.81
2018-06-18T16:55:57.656Z,50.89
2018-06-18T16:58:25.717Z,51.07
2018-06-18T17:00:53.766Z,51.50
2018-06-18T17:03:21.808Z,51.96
2018-06-18T17:05:50.164Z,53.26
2018-06-18T17:08:18.209Z,52.93
2018-06-18T17:10:46.267Z,52.67
2018-06-18T17:13:14.322Z,51.62
2018-06-18T17:15:42.500Z,51.34
2018-06-18T17:18:10.549Z,51.84
2018-06-18T17:20:38.609Z,50.93
2018-06-18T17:23:06.667Z,51.24
2018-06-18T17:25:34.752Z,51.31
2018-06-18T17:28:02.837Z,50.51
2018-06-18T17:30:30.918Z,50.91
2018-06-18T17:32:58.961Z,50.44
2018-06-18T17:35:27.032Z,50.54
2018-06-18T17:37:55.367Z,50.50
2018-06-18T17:40:23.396Z,51.17
2018-06-18T17:42:51.472Z,51.38
2018-06-18T17:45:19.544Z,51.10
2018-06-18T17:47:47.622Z,50.78
2018-06-18T17:50:15.668Z,51.31
2018-06-18T17:52:43.720Z,50.99
2018-06-18T17:55:11.793Z,51.01
2018-06-18T17:57:39.865Z,50.71
2018-06-18T18:00:07.940Z,50.58
2018-06-18T18:02:36.013Z,51.20
2018-06-18T18:05:04.109Z,51.54
2018-06-18T18:07:32.192Z,52.30
2018-06-18T18:10:00.356Z,52.92
2018-06-18T18:12:28.419Z,53.31
2018-06-18T18:14:56.488Z,52.98
2018-06-18T18:17:24.560Z,52.78
2018-06-18T18:19:52.637Z,52.70
2018-06-18T18:22:20.688Z,52.05
2018-06-18T18:24:48.753Z,51.75
2018-06-18T18:27:16.813Z,52.12
2018-06-18T18:29:44.872Z,53.70
2018-06-18T18:32:12.972Z,54.55
2018-06-18T18:34:41.056Z,56.10
2018-06-18T18:37:09.122Z,56.31
2018-06-18T18:39:37.192Z,56.97
2018-06-18T18:42:05.307Z,57.54
2018-06-18T18:44:33.377Z,58.21
2018-06-18T18:47:01.432Z,58.82
2018-06-18T18:49:29.492Z,59.24
2018-06-18T18:51:57.584Z,60.08
2018-06-18T18:54:40.591Z,60.74
2018-06-18T18:57:18.878Z,61.28
2018-06-18T18:59:46.943Z,61.61
2018-06-18T19:02:15.053Z,61.89
2018-06-18T19:04:58.243Z,62.33
2018-06-18T19:07:32.178Z,62.60
2018-06-18T19:10:20.255Z,63.49
2018-06-18T19:12:48.648Z,63.36
2018-06-18T19:15:16.731Z,63.61
2018-06-18T19:17:44.811Z,64.00
2018-06-18T19:20:28.760Z,64.24
2018-06-18T19:22:56.847Z,64.34
2018-06-18T19:25:24.908Z,65.20
2018-06-18T19:27:52.993Z,65.27
2018-06-18T19:30:21.060Z,64.66
2018-06-18T19:32:49.693Z,65.00
2018-06-18T19:35:17.772Z,65.83
2018-06-18T19:37:49.129Z,65.66
2018-06-18T19:40:18.993Z,66.27
2018-06-18T19:42:51.160Z,66.68
2018-06-18T19:45:20.989Z,66.45
2018-06-18T19:47:53.264Z,66.67
2018-06-18T19:50:21.317Z,66.92
2018-06-18T19:52:49.416Z,66.26
2018-06-18T19:55:21.569Z,66.05
2018-06-18T19:57:49.648Z,67.13
2018-06-18T20:00:18.901Z,66.61
2018-06-18T20:02:48.525Z,66.82
2018-06-18T20:05:16.702Z,67.07
2018-06-18T20:07:54.781Z,67.44
2018-06-18T20:10:38.206Z,67.14
2018-06-18T20:13:06.271Z,67.58
2018-06-18T20:15:34.320Z,67.94
2018-06-18T20:18:02.383Z,67.96
2018-06-18T20:20:30.440Z,67.84
2018-06-18T20:22:58.497Z,67.08
2018-06-18T20:25:30.253Z,67.38
2018-06-18T20:27:59.141Z,67.87
2018-06-18T20:30:27.204Z,68.16
2018-06-18T20:32:55.276Z,68.07
2018-06-18T20:35:27.045Z,68.01
2018-06-18T20:37:55.128Z,68.27
2018-06-18T20:40:23.186Z,68.42
2018-06-18T20:42:51.404Z,68.49
2018-06-18T20:45:19.488Z,68.32
2018-06-18T20:47:47.536Z,68.56
2018-06-18T20:50:15.603Z,68.69
2018-06-18T20:52:43.666Z,68.46
2018-06-18T20:55:11.729Z,68.93
2018-06-18T20:57:39.773Z,68.73
2018-06-18T21:00:07.959Z,69.05
2018-06-18T21:02:36.013Z,68.39
2018-06-18T21:05:04.077Z,69.16
2018-06-18T21:07:32.389Z,68.88
2018-06-18T21:10:00.549Z,68.94
2018-06-18T21:12:28.602Z,69.39
2018-06-18T21:14:56.657Z,68.75
2018-06-18T21:17:24.708Z,68.63
2018-06-18T21:19:52.782Z,69.48
2018-06-18T21:22:20.840Z,69.22
2018-06-18T21:24:48.967Z,69.04
2018-06-18T21:27:17.036Z,69.74
2018-06-18T21:29:45.097Z,69.63
2018-06-18T21:32:13.140Z,68.76
2018-06-18T21:34:41.202Z,69.12
2018-06-18T21:37:09.244Z,69.71
2018-06-18T21:39:37.317Z,69.83
2018-06-18T21:42:05.459Z,70.18
2018-06-18T21:44:45.027Z,70.09
2018-06-18T21:47:13.068Z,69.84
2018-06-18T21:49:41.128Z,69.82
2018-06-18T21:52:09.168Z,70.29
2018-06-18T21:54:37.254Z,70.59
2018-06-18T21:57:05.307Z,69.30
2018-06-18T21:59:33.352Z,70.37
2018-06-18T22:02:01.423Z,70.07
2018-06-18T22:04:29.465Z,70.55
2018-06-18T22:06:57.537Z,70.96
2018-06-18T22:09:25.596Z,70.34
2018-06-18T22:11:54.892Z,70.55
2018-06-18T22:14:23.662Z,70.59
2018-06-18T22:16:51.714Z,70.51
2018-06-18T22:19:19.781Z,69.91
2018-06-18T22:21:47.916Z,70.10
2018-06-18T22:24:15.961Z,70.17
2018-06-18T22:26:44.057Z,69.79
2018-06-18T22:29:12.985Z,69.65
2018-06-18T22:31:41.052Z,70.09
2018-06-18T22:34:09.103Z,69.72
2018-06-18T22:36:37.149Z,69.72
2018-06-18T22:39:07.940Z,69.44
2018-06-18T22:41:36.097Z,69.55
2018-06-18T22:44:04.227Z,69.53
2018-06-18T22:46:32.288Z,69.29
2018-06-18T22:49:00.344Z,69.77
2018-06-18T22:51:28.405Z,69.77
2018-06-18T22:53:56.507Z,69.24
2018-06-18T22:56:24.516Z,69.67
2018-06-18T22:58:52.568Z,69.77
2018-06-18T23:01:20.620Z,69.90
2018-06-18T23:03:48.689Z,69.60
2018-06-18T23:06:16.756Z,69.32
2018-06-18T23:08:44.829Z,69.62
2018-06-18T23:11:12.902Z,69.42
2018-06-18T23:13:40.948Z,69.31
2018-06-18T23:16:09.525Z,69.28
2018-06-18T23:18:37.580Z,69.25
2018-06-18T23:21:05.655Z,69.85
2018-06-18T23:23:33.725Z,69.76
2018-06-18T23:26:01.794Z,69.54
2018-06-18T23:28:38.890Z,69.58
2018-06-18T23:31:06.989Z,70.12
2018-06-18T23:33:35.061Z,69.74
2018-06-18T23:36:03.217Z,69.89
2018-06-18T23:38:31.278Z,69.90
2018-06-18T23:40:59.397Z,69.82
2018-06-18T23:43:27.440Z,70.12
2018-06-18T23:45:55.519Z,69.69
2018-06-18T23:48:23.568Z,70.11
2018-06-18T23:50:51.617Z,69.94
2018-06-18T23:53:19.764Z,70.22
2018-06-18T23:55:47.980Z,70.13
2018-06-18T23:58:16.049Z,69.72
